Terminal Aerodrome Forecast
Issued by NWS

Home | Current Version | Previous Version | Text Only | Print | Product List | Glossary On
Versions: 1 2 3 4 5 6 7 8 9 10 11 12 13 14 15 16 17 18 19 20 21 22 23 24 25 26
829
FTUS44 KLIX 031739
TAFGPT
TAF
KGPT 031739Z 0318/0418 01005KT P6SM SCT016 OVC050
     FM032000 32007KT P6SM BKN025 BKN120
     FM040400 36011KT P6SM SCT090
     FM041400 35013G20KT P6SM SKC=

USA.gov is the U.S. government's official web portal to all federal, state and local government web resources and services.